sensor_id;sensor_type;location;lat;lon;timestamp;pressure;altitude;pressure_sealevel;temperature;humidity
62710;BME280;48770;51.624;5.886;2023-02-12T00:02:06;103674.03;;;18.85;38.59
62710;BME280;48770;51.624;5.886;2023-02-12T00:04:32;103668.47;;;18.85;38.36
62710;BME280;48770;51.624;5.886;2023-02-12T00:06:58;103674.03;;;18.85;38.25
62710;BME280;48770;51.624;5.886;2023-02-12T00:09:23;103676.78;;;18.85;38.37
62710;BME280;48770;51.624;5.886;2023-02-12T00:11:48;103677.91;;;18.84;38.52
62710;BME280;48770;51.624;5.886;2023-02-12T00:14:14;103671.53;;;18.83;38.35
62710;BME280;48770;51.624;5.886;2023-02-12T00:16:39;103677.06;;;18.83;38.51
62710;BME280;48770;51.624;5.886;2023-02-12T00:19:04;103682.59;;;18.83;38.31
62710;BME280;48770;51.624;5.886;2023-02-12T00:21:30;103684.53;;;18.83;38.63
62710;BME280;48770;51.624;5.886;2023-02-12T00:23:55;103680.94;;;18.82;38.77
62710;BME280;48770;51.624;5.886;2023-02-12T00:26:22;103677.34;;;18.82;38.31
62710;BME280;48770;51.624;5.886;2023-02-12T00:28:47;103680.94;;;18.82;38.32
62710;BME280;48770;51.624;5.886;2023-02-12T00:31:18;103687.31;;;18.83;38.45
62710;BME280;48770;51.624;5.886;2023-02-12T00:33:44;103685.66;;;18.82;38.24
62710;BME280;48770;51.624;5.886;2023-02-12T00:36:13;103689.25;;;18.82;38.60
62710;BME280;48770;51.624;5.886;2023-02-12T00:38:39;103686.75;;;18.81;38.47
62710;BME280;48770;51.624;5.886;2023-02-12T00:41:04;103688.69;;;18.80;38.56
62710;BME280;48770;51.624;5.886;2023-02-12T00:43:30;103678.72;;;18.79;38.52
62710;BME280;48770;51.624;5.886;2023-02-12T00:45:55;103672.34;;;18.78;38.33
62710;BME280;48770;51.624;5.886;2023-02-12T00:48:21;103677.88;;;18.78;38.61
62710;BME280;48770;51.624;5.886;2023-02-12T00:50:47;103670.41;;;18.79;38.26
62710;BME280;48770;51.624;5.886;2023-02-12T00:53:14;103673.16;;;18.79;38.44
62710;BME280;48770;51.624;5.886;2023-02-12T00:55:39;103673.16;;;18.79;38.63
62710;BME280;48770;51.624;5.886;2023-02-12T00:58:05;103677.88;;;18.78;38.26
62710;BME280;48770;51.624;5.886;2023-02-12T01:00:30;103681.47;;;18.79;38.44
62710;BME280;48770;51.624;5.886;2023-02-12T01:02:55;103670.66;;;18.77;38.28
62710;BME280;48770;51.624;5.886;2023-02-12T01:05:21;103674.28;;;18.78;38.28
62710;BME280;48770;51.624;5.886;2023-02-12T01:07:50;103675.38;;;18.77;38.18
62710;BME280;48770;51.624;5.886;2023-02-12T01:10:15;103678.97;;;18.77;38.38
62710;BME280;48770;51.624;5.886;2023-02-12T01:12:41;103671.78;;;18.76;38.34
62710;BME280;48770;51.624;5.886;2023-02-12T01:15:07;103673.44;;;18.77;38.51
62710;BME280;48770;51.624;5.886;2023-02-12T01:17:34;103682.84;;;18.76;38.35
62710;BME280;48770;51.624;5.886;2023-02-12T01:20:00;103679.25;;;18.76;38.48
62710;BME280;48770;51.624;5.886;2023-02-12T01:22:25;103679.25;;;18.76;38.38
62710;BME280;48770;51.624;5.886;2023-02-12T01:24:50;103682.03;;;18.76;38.62
62710;BME280;48770;51.624;5.886;2023-02-12T01:27:16;103673.72;;;18.76;38.20
62710;BME280;48770;51.624;5.886;2023-02-12T01:29:41;103672.03;;;18.75;38.58
62710;BME280;48770;51.624;5.886;2023-02-12T01:32:09;103672.28;;;18.73;38.54
62710;BME280;48770;51.624;5.886;2023-02-12T01:34:34;103669.28;;;18.75;38.34
62710;BME280;48770;51.624;5.886;2023-02-12T01:37:00;103662.91;;;18.74;38.29
62710;BME280;48770;51.624;5.886;2023-02-12T01:39:25;103664.84;;;18.74;38.26
62710;BME280;48770;51.624;5.886;2023-02-12T01:41:50;103669.50;;;18.73;38.59
62710;BME280;48770;51.624;5.886;2023-02-12T01:44:19;103676.75;;;18.74;38.40
62710;BME280;48770;51.624;5.886;2023-02-12T01:46:49;103677.00;;;18.73;38.38
62710;BME280;48770;51.624;5.886;2023-02-12T01:51:50;103677.00;;;18.73;38.27
62710;BME280;48770;51.624;5.886;2023-02-12T01:54:18;103677.81;;;18.73;38.56
62710;BME280;48770;51.624;5.886;2023-02-12T01:56:45;103676.16;;;18.72;38.33
62710;BME280;48770;51.624;5.886;2023-02-12T01:59:11;103674.22;;;18.73;38.36
62710;BME280;48770;51.624;5.886;2023-02-12T02:01:37;103668.69;;;18.73;38.13
62710;BME280;48770;51.624;5.886;2023-02-12T02:04:09;103665.91;;;18.73;38.30
62710;BME280;48770;51.624;5.886;2023-02-12T02:06:48;103672.00;;;18.70;38.30
62710;BME280;48770;51.624;5.886;2023-02-12T02:09:17;103670.88;;;18.71;38.35
62710;BME280;48770;51.624;5.886;2023-02-12T02:11:43;103664.50;;;18.70;38.28
62710;BME280;48770;51.624;5.886;2023-02-12T02:14:27;103659.34;;;18.47;38.54
62710;BME280;48770;51.624;5.886;2023-02-12T02:25:48;103655.84;;;18.62;38.55
62710;BME280;48770;51.624;5.886;2023-02-12T02:34:17;103652.53;;;18.60;38.75
62710;BME280;48770;51.624;5.886;2023-02-12T02:39:39;103655.84;;;18.62;38.52
62710;BME280;48770;51.624;5.886;2023-02-12T02:44:50;103646.69;;;18.61;38.66
62710;BME280;48770;51.624;5.886;2023-02-12T02:47:20;103643.69;;;18.63;38.46
62710;BME280;48770;51.624;5.886;2023-02-12T02:50:09;103645.03;;;18.60;38.35
62710;BME280;48770;51.624;5.886;2023-02-12T02:53:01;103636.16;;;18.58;38.67
62710;BME280;48770;51.624;5.886;2023-02-12T02:55:32;103631.19;;;18.60;38.64
62710;BME280;48770;51.624;5.886;2023-02-12T02:58:05;103641.16;;;18.61;38.50
62710;BME280;48770;51.624;5.886;2023-02-12T03:00:43;103638.38;;;18.61;38.58
62710;BME280;48770;51.624;5.886;2023-02-12T03:03:21;103633.94;;;18.60;38.55
62710;BME280;48770;51.624;5.886;2023-02-12T03:05:49;103632.84;;;18.61;38.68
62710;BME280;48770;51.624;5.886;2023-02-12T03:08:25;103638.38;;;18.61;38.30
62710;BME280;48770;51.624;5.886;2023-02-12T03:11:01;103637.56;;;18.61;38.48
62710;BME280;48770;51.624;5.886;2023-02-12T03:13:33;103634.78;;;18.61;38.47
62710;BME280;48770;51.624;5.886;2023-02-12T03:16:12;103634.22;;;18.59;38.38
62710;BME280;48770;51.624;5.886;2023-02-12T03:18:57;103636.16;;;18.58;38.30
62710;BME280;48770;51.624;5.886;2023-02-12T03:24:12;103638.38;;;18.56;38.65
62710;BME280;48770;51.624;5.886;2023-02-12T03:26:47;103636.44;;;18.57;38.36
62710;BME280;48770;51.624;5.886;2023-02-12T03:29:13;103639.22;;;18.57;38.32
62710;BME280;48770;51.624;5.886;2023-02-12T03:34:50;103641.72;;;18.58;38.56
62710;BME280;48770;51.624;5.886;2023-02-12T03:37:30;103639.22;;;18.57;38.58
62710;BME280;48770;51.624;5.886;2023-02-12T03:40:00;103645.84;;;18.56;38.66
62710;BME280;48770;51.624;5.886;2023-02-12T03:42:35;103639.34;;;18.35;38.70
62710;BME280;48770;51.624;5.886;2023-02-12T03:45:09;103645.50;;;18.47;38.49
62710;BME280;48770;51.624;5.886;2023-02-12T03:47:44;103646.66;;;18.51;38.58
62710;BME280;48770;51.624;5.886;2023-02-12T03:52:39;103643.63;;;18.53;38.43
62710;BME280;48770;51.624;5.886;2023-02-12T03:55:06;103638.63;;;18.55;38.23
62710;BME280;48770;51.624;5.886;2023-02-12T03:57:37;103641.41;;;18.55;38.31
62710;BME280;48770;51.624;5.886;2023-02-12T04:00:08;103642.25;;;18.55;38.29
62710;BME280;48770;51.624;5.886;2023-02-12T04:02:35;103642.25;;;18.55;38.33
62710;BME280;48770;51.624;5.886;2023-02-12T04:05:05;103647.78;;;18.55;38.43
62710;BME280;48770;51.624;5.886;2023-02-12T04:07:31;103642.25;;;18.55;38.59
62710;BME280;48770;51.624;5.886;2023-02-12T04:09:57;103645.84;;;18.56;38.45
62710;BME280;48770;51.624;5.886;2023-02-12T04:15:50;103646.78;;;18.29;38.81
62710;BME280;48770;51.624;5.886;2023-02-12T04:18:41;103648.25;;;18.42;38.63
62710;BME280;48770;51.624;5.886;2023-02-12T04:26:21;103656.34;;;18.48;38.65
62710;BME280;48770;51.624;5.886;2023-02-12T04:29:13;103661.88;;;18.48;38.42
62710;BME280;48770;51.624;5.886;2023-02-12T04:35:14;103667.63;;;18.42;38.57
62710;BME280;48770;51.624;5.886;2023-02-12T04:37:48;103677.34;;;18.44;38.47
62710;BME280;48770;51.624;5.886;2023-02-12T04:40:19;103687.06;;;18.47;38.75
62710;BME280;48770;51.624;5.886;2023-02-12T04:42:47;103688.75;;;18.48;38.46
62710;BME280;48770;51.624;5.886;2023-02-12T04:45:16;103684.88;;;18.49;38.67
62710;BME280;48770;51.624;5.886;2023-02-12T04:47:45;103692.09;;;18.50;38.52
62710;BME280;48770;51.624;5.886;2023-02-12T04:50:11;103680.19;;;18.49;38.48
62710;BME280;48770;51.624;5.886;2023-02-12T04:52:36;103679.34;;;18.49;38.54
62710;BME280;48770;51.624;5.886;2023-02-12T04:55:01;103692.94;;;18.51;38.61
62710;BME280;48770;51.624;5.886;2023-02-12T04:57:27;103688.50;;;18.49;38.44
62710;BME280;48770;51.624;5.886;2023-02-12T04:59:52;103680.19;;;18.49;38.39
62710;BME280;48770;51.624;5.886;2023-02-12T05:02:18;103673.53;;;18.51;38.20
62710;BME280;48770;51.624;5.886;2023-02-12T05:04:43;103678.25;;;18.50;38.39
62710;BME280;48770;51.624;5.886;2023-02-12T05:07:10;103672.69;;;18.50;38.45
62710;BME280;48770;51.624;5.886;2023-02-12T05:09:35;103677.41;;;18.49;38.34
62710;BME280;48770;51.624;5.886;2023-02-12T05:12:01;103679.06;;;18.51;38.60
62710;BME280;48770;51.624;5.886;2023-02-12T05:14:26;103681.28;;;18.48;38.31
62710;BME280;48770;51.624;5.886;2023-02-12T05:16:51;103684.88;;;18.49;38.48
62710;BME280;48770;51.624;5.886;2023-02-12T05:19:16;103684.88;;;18.49;38.53
62710;BME280;48770;51.624;5.886;2023-02-12T05:21:42;103676.56;;;18.49;38.25
62710;BME280;48770;51.624;5.886;2023-02-12T05:24:07;103677.69;;;18.48;38.30
62710;BME280;48770;51.624;5.886;2023-02-12T05:26:34;103680.19;;;18.49;38.42
62710;BME280;48770;51.624;5.886;2023-02-12T05:28:59;103684.88;;;18.49;38.41
62710;BME280;48770;51.624;5.886;2023-02-12T05:31:25;103692.38;;;18.48;38.52
62710;BME280;48770;51.624;5.886;2023-02-12T05:33:50;103694.31;;;18.48;38.23
62710;BME280;48770;51.624;5.886;2023-02-12T05:36:18;103694.31;;;18.48;38.47
62710;BME280;48770;51.624;5.886;2023-02-12T05:38:44;103686.00;;;18.48;38.26
62710;BME280;48770;51.624;5.886;2023-02-12T05:41:13;103691.53;;;18.48;38.45
62710;BME280;48770;51.624;5.886;2023-02-12T05:43:38;103690.66;;;18.47;38.41
62710;BME280;48770;51.624;5.886;2023-02-12T05:46:05;103689.84;;;18.47;38.47
62710;BME280;48770;51.624;5.886;2023-02-12T05:48:31;103695.97;;;18.49;38.38
62710;BME280;48770;51.624;5.886;2023-02-12T05:51:02;103686.00;;;18.48;38.56
62710;BME280;48770;51.624;5.886;2023-02-12T05:53:28;103700.91;;;18.47;38.43
62710;BME280;48770;51.624;5.886;2023-02-12T05:55:53;103697.31;;;18.46;38.23
62710;BME280;48770;51.624;5.886;2023-02-12T05:58:18;103703.94;;;18.45;38.37
62710;BME280;48770;51.624;5.886;2023-02-12T06:00:44;103699.25;;;18.46;38.43
62710;BME280;48770;51.624;5.886;2023-02-12T06:03:09;103698.69;;;18.44;38.31
62710;BME280;48770;51.624;5.886;2023-02-12T06:05:34;103704.22;;;18.44;38.51
62710;BME280;48770;51.624;5.886;2023-02-12T06:07:59;103702.28;;;18.44;38.30
62710;BME280;48770;51.624;5.886;2023-02-12T06:10:25;103698.69;;;18.44;38.45
62710;BME280;48770;51.624;5.886;2023-02-12T06:12:55;103701.44;;;18.44;38.52
62710;BME280;48770;51.624;5.886;2023-02-12T06:15:20;103710.59;;;18.44;38.42
62710;BME280;48770;51.624;5.886;2023-02-12T06:17:46;103707.00;;;18.44;38.17
62710;BME280;48770;51.624;5.886;2023-02-12T06:20:11;103715.31;;;18.44;38.51
62710;BME280;48770;51.624;5.886;2023-02-12T06:22:36;103711.69;;;18.43;38.45
62710;BME280;48770;51.624;5.886;2023-02-12T06:25:03;103708.09;;;18.43;38.58
62710;BME280;48770;51.624;5.886;2023-02-12T06:27:28;103709.75;;;18.44;38.36
62710;BME280;48770;51.624;5.886;2023-02-12T06:29:53;103713.63;;;18.43;38.69
62710;BME280;48770;51.624;5.886;2023-02-12T06:32:19;103711.97;;;18.42;38.45
62710;BME280;48770;51.624;5.886;2023-02-12T06:34:44;103713.91;;;18.41;38.29
62710;BME280;48770;51.624;5.886;2023-02-12T06:37:11;103714.72;;;18.42;38.39
62710;BME280;48770;51.624;5.886;2023-02-12T06:39:37;103720.28;;;18.42;38.58
62710;BME280;48770;51.624;5.886;2023-02-12T06:42:02;103721.13;;;18.42;38.37
62710;BME280;48770;51.624;5.886;2023-02-12T06:44:27;103713.91;;;18.41;38.44
62710;BME280;48770;51.624;5.886;2023-02-12T06:46:53;103715.84;;;18.41;38.32
62710;BME280;48770;51.624;5.886;2023-02-12T06:49:18;103712.22;;;18.40;38.64
62710;BME280;48770;51.624;5.886;2023-02-12T06:51:43;103718.59;;;18.41;38.46
62710;BME280;48770;51.624;5.886;2023-02-12T06:54:14;103720.28;;;18.42;38.45
62710;BME280;48770;51.624;5.886;2023-02-12T06:56:39;103716.09;;;18.39;38.38
62710;BME280;48770;51.624;5.886;2023-02-12T06:59:05;103721.38;;;18.41;38.42
62710;BME280;48770;51.624;5.886;2023-02-12T07:01:30;103733.56;;;18.40;38.40
62710;BME280;48770;51.624;5.886;2023-02-12T07:03:58;103729.13;;;18.39;38.38
62710;BME280;48770;51.624;5.886;2023-02-12T07:06:25;103728.03;;;18.40;38.10
62710;BME280;48770;51.624;5.886;2023-02-12T07:08:51;103728.03;;;18.40;38.43
62710;BME280;48770;51.624;5.886;2023-02-12T07:11:17;103731.91;;;18.39;38.36
62710;BME280;48770;51.624;5.886;2023-02-12T07:13:43;103739.09;;;18.40;38.49
62710;BME280;48770;51.624;5.886;2023-02-12T07:16:12;103732.72;;;18.39;38.52
62710;BME280;48770;51.624;5.886;2023-02-12T07:18:38;103741.88;;;18.40;38.37
62710;BME280;48770;51.624;5.886;2023-02-12T07:21:05;103736.34;;;18.40;38.44
62710;BME280;48770;51.624;5.886;2023-02-12T07:23:32;103739.09;;;18.40;38.38
62710;BME280;48770;51.624;5.886;2023-02-12T07:25:59;103739.94;;;18.40;38.23
62710;BME280;48770;51.624;5.886;2023-02-12T07:28:25;103740.22;;;18.39;38.38
62710;BME280;48770;51.624;5.886;2023-02-12T07:30:51;103743.81;;;18.39;38.58
62710;BME280;48770;51.624;5.886;2023-02-12T07:33:16;103742.97;;;18.39;38.32
62710;BME280;48770;51.624;5.886;2023-02-12T07:35:42;103742.13;;;18.38;38.17
62710;BME280;48770;51.624;5.886;2023-02-12T07:38:07;103742.13;;;18.38;38.38
62710;BME280;48770;51.624;5.886;2023-02-12T07:40:33;103747.69;;;18.38;38.38
62710;BME280;48770;51.624;5.886;2023-02-12T07:42:58;103747.94;;;18.37;38.61
62710;BME280;48770;51.624;5.886;2023-02-12T07:45:24;103757.94;;;18.38;38.59
62710;BME280;48770;51.624;5.886;2023-02-12T07:47:49;103742.41;;;18.37;38.32
62710;BME280;48770;51.624;5.886;2023-02-12T07:50:15;103754.59;;;18.36;38.25
62710;BME280;48770;51.624;5.886;2023-02-12T07:52:41;103756.25;;;18.37;38.42
62710;BME280;48770;51.624;5.886;2023-02-12T07:55:06;103753.50;;;18.37;38.53
62710;BME280;48770;51.624;5.886;2023-02-12T07:57:33;103748.78;;;18.37;38.47
62710;BME280;48770;51.624;5.886;2023-02-12T07:59:59;103754.31;;;18.37;38.47
62710;BME280;48770;51.624;5.886;2023-02-12T08:02:24;103761.78;;;18.37;38.31
62710;BME280;48770;51.624;5.886;2023-02-12T08:04:54;103750.72;;;18.37;38.44
62710;BME280;48770;51.624;5.886;2023-02-12T08:07:20;103750.97;;;18.35;38.61
62710;BME280;48770;51.624;5.886;2023-02-12T08:09:45;103755.69;;;18.35;38.50
62710;BME280;48770;51.624;5.886;2023-02-12T08:12:10;103766.78;;;18.35;38.68
62710;BME280;48770;51.624;5.886;2023-02-12T08:14:36;103754.84;;;18.34;38.32
62710;BME280;48770;51.624;5.886;2023-02-12T08:17:01;103772.31;;;18.35;38.50
62710;BME280;48770;51.624;5.886;2023-02-12T08:19:26;103779.78;;;18.34;38.60
62710;BME280;48770;51.624;5.886;2023-02-12T08:21:53;103779.78;;;18.34;38.35
62710;BME280;48770;51.624;5.886;2023-02-12T08:24:19;103780.63;;;18.35;38.26
62710;BME280;48770;51.624;5.886;2023-02-12T08:26:46;103774.25;;;18.34;38.45
62710;BME280;48770;51.624;5.886;2023-02-12T08:29:14;103783.66;;;18.33;38.43
62710;BME280;48770;51.624;5.886;2023-02-12T08:31:44;103780.06;;;18.33;38.42
62710;BME280;48770;51.624;5.886;2023-02-12T08:34:24;103782.81;;;18.33;38.44
62710;BME280;48770;51.624;5.886;2023-02-12T08:36:51;103791.13;;;18.33;38.57
62710;BME280;48770;51.624;5.886;2023-02-12T08:39:18;103787.53;;;18.32;38.38
62710;BME280;48770;51.624;5.886;2023-02-12T08:41:45;103789.19;;;18.33;38.37
62710;BME280;48770;51.624;5.886;2023-02-12T08:44:11;103780.06;;;18.33;38.28
62710;BME280;48770;51.624;5.886;2023-02-12T08:46:39;103787.25;;;18.34;38.32
62710;BME280;48770;51.624;5.886;2023-02-12T08:49:07;103790.88;;;18.34;38.35
62710;BME280;48770;51.624;5.886;2023-02-12T08:51:35;103782.56;;;18.34;38.21
62710;BME280;48770;51.624;5.886;2023-02-12T08:54:04;103790.88;;;18.34;38.32
62710;BME280;48770;51.624;5.886;2023-02-12T08:56:31;103789.19;;;18.33;38.40
62710;BME280;48770;51.624;5.886;2023-02-12T08:58:59;103782.81;;;18.33;38.53
62710;BME280;48770;51.624;5.886;2023-02-12T09:01:26;103790.28;;;18.32;38.41
62710;BME280;48770;51.624;5.886;2023-02-12T09:03:52;103787.53;;;18.32;38.33
62710;BME280;48770;51.624;5.886;2023-02-12T09:06:19;103792.22;;;18.32;38.41
62710;BME280;48770;51.624;5.886;2023-02-12T09:08:45;103788.63;;;18.31;38.49
62710;BME280;48770;51.624;5.886;2023-02-12T09:11:16;103791.41;;;18.31;38.31
62710;BME280;48770;51.624;5.886;2023-02-12T09:13:44;103797.78;;;18.32;38.56
62710;BME280;48770;51.624;5.886;2023-02-12T09:16:10;103802.47;;;18.31;38.20
62710;BME280;48770;51.624;5.886;2023-02-12T09:18:36;103797.78;;;18.32;38.31
62710;BME280;48770;51.624;5.886;2023-02-12T09:21:10;103805.25;;;18.31;38.44
62710;BME280;48770;51.624;5.886;2023-02-12T09:23:37;103806.34;;;18.30;38.49
62710;BME280;48770;51.624;5.886;2023-02-12T09:26:04;103809.69;;;18.32;38.20
62710;BME280;48770;51.624;5.886;2023-02-12T09:28:29;103815.50;;;18.31;38.36
62710;BME280;48770;51.624;5.886;2023-02-12T09:30:55;103816.31;;;18.31;38.40
62710;BME280;48770;51.624;5.886;2023-02-12T09:33:21;103813.56;;;18.31;38.34
62710;BME280;48770;51.624;5.886;2023-02-12T09:35:47;103811.06;;;18.30;38.57
62710;BME280;48770;51.624;5.886;2023-02-12T09:38:12;103807.19;;;18.31;38.38
62710;BME280;48770;51.624;5.886;2023-02-12T09:43:43;103810.22;;;18.29;38.59
62710;BME280;48770;51.624;5.886;2023-02-12T09:46:52;103809.38;;;18.29;38.68
62710;BME280;48770;51.624;5.886;2023-02-12T09:52:21;103812.72;;;18.31;38.70
62710;BME280;48770;51.624;5.886;2023-02-12T09:54:49;103811.34;;;18.33;38.44
62710;BME280;48770;51.624;5.886;2023-02-12T09:57:32;103807.47;;;18.34;38.60
62710;BME280;48770;51.624;5.886;2023-02-12T10:00:14;103814.44;;;18.37;38.54
62710;BME280;48770;51.624;5.886;2023-02-12T10:02:40;103810.03;;;18.41;38.56
62710;BME280;48770;51.624;5.886;2023-02-12T10:05:27;103809.75;;;18.42;38.59
62710;BME280;48770;51.624;5.886;2023-02-12T10:27:16;103801.38;;;18.64;38.42
62710;BME280;48770;51.624;5.886;2023-02-12T10:29:44;103797.81;;;18.69;38.15
62710;BME280;48770;51.624;5.886;2023-02-12T10:32:25;103796.72;;;18.70;38.55
62710;BME280;48770;51.624;5.886;2023-02-12T10:34:52;103790.41;;;18.74;38.23
62710;BME280;48770;51.624;5.886;2023-02-12T10:40:24;103799.00;;;18.78;38.06
62710;BME280;48770;51.624;5.886;2023-02-12T10:42:55;103795.44;;;18.83;38.12
62710;BME280;48770;51.624;5.886;2023-02-12T10:45:28;103800.44;;;18.86;38.15
62710;BME280;48770;51.624;5.886;2023-02-12T10:48:03;103795.47;;;18.88;38.13
62710;BME280;48770;51.624;5.886;2023-02-12T10:50:40;103788.53;;;18.90;38.12
62710;BME280;48770;51.624;5.886;2023-02-12T10:53:14;103792.72;;;18.93;37.86
62710;BME280;48770;51.624;5.886;2023-02-12T10:55:40;103791.34;;;18.95;38.06
62710;BME280;48770;51.624;5.886;2023-02-12T10:58:17;103792.75;;;18.98;37.96
62710;BME280;48770;51.624;5.886;2023-02-12T11:00:43;103803.56;;;18.99;37.83
62710;BME280;48770;51.624;5.886;2023-02-12T11:05:42;103794.47;;;19.04;38.02
62710;BME280;48770;51.624;5.886;2023-02-12T11:08:34;103800.00;;;19.04;37.87
62710;BME280;48770;51.624;5.886;2023-02-12T11:11:06;103794.19;;;19.05;38.06
62710;BME280;48770;51.624;5.886;2023-02-12T11:13:33;103801.69;;;19.05;37.94
62710;BME280;48770;51.624;5.886;2023-02-12T11:15:59;103798.09;;;19.09;37.81
62710;BME280;48770;51.624;5.886;2023-02-12T11:18:28;103797.81;;;19.11;37.88
62710;BME280;48770;51.624;5.886;2023-02-12T11:21:03;103796.72;;;19.12;37.82
62710;BME280;48770;51.624;5.886;2023-02-12T11:23:35;103793.94;;;19.12;38.14
62710;BME280;48770;51.624;5.886;2023-02-12T11:26:06;103787.03;;;19.15;37.56
62710;BME280;48770;51.624;5.886;2023-02-12T11:28:38;103794.25;;;19.16;37.82
62710;BME280;48770;51.624;5.886;2023-02-12T11:31:30;103782.03;;;19.17;37.96
62710;BME280;48770;51.624;5.886;2023-02-12T11:34:11;103782.88;;;19.17;37.72
62710;BME280;48770;51.624;5.886;2023-02-12T11:36:52;103780.66;;;19.19;37.75
62710;BME280;48770;51.624;5.886;2023-02-12T11:41:54;103775.97;;;19.25;37.62
62710;BME280;48770;51.624;5.886;2023-02-12T11:44:24;103782.94;;;19.27;37.68
62710;BME280;48770;51.624;5.886;2023-02-12T11:46:55;103778.78;;;19.30;37.88
62710;BME280;48770;51.624;5.886;2023-02-12T11:49:28;103774.63;;;19.32;37.67
62710;BME280;48770;51.624;5.886;2023-02-12T11:51:56;103774.94;;;19.36;37.66
62710;BME280;48770;51.624;5.886;2023-02-12T11:54:24;103775.22;;;19.39;37.71
62710;BME280;48770;51.624;5.886;2023-02-12T11:56:51;103768.56;;;19.40;37.61
62710;BME280;48770;51.624;5.886;2023-02-12T11:59:33;103774.38;;;19.44;37.81
62710;BME280;48770;51.624;5.886;2023-02-12T12:02:49;103770.50;;;19.45;37.73
62710;BME280;48770;51.624;5.886;2023-02-12T12:04:52;103767.47;;;19.47;37.55
62710;BME280;48770;51.624;5.886;2023-02-12T12:07:24;103758.59;;;19.50;37.72
62710;BME280;48770;51.624;5.886;2023-02-12T12:10:14;103766.91;;;19.50;37.59
62710;BME280;48770;51.624;5.886;2023-02-12T12:12:57;103762.78;;;19.52;37.43
62710;BME280;48770;51.624;5.886;2023-02-12T12:15:33;103758.66;;;19.55;37.56
62710;BME280;48770;51.624;5.886;2023-02-12T12:18:45;103761.44;;;19.55;37.57
62710;BME280;48770;51.624;5.886;2023-02-12T12:30:32;103751.47;;;19.64;37.62
62710;BME280;48770;51.624;5.886;2023-02-12T12:33:05;103744.25;;;19.68;37.37
62710;BME280;48770;51.624;5.886;2023-02-12T12:36:00;103745.91;;;19.69;37.63
62710;BME280;48770;51.624;5.886;2023-02-12T12:38:49;103742.59;;;19.72;37.75
62710;BME280;48770;51.624;5.886;2023-02-12T12:41:28;103739.25;;;19.75;37.38
62710;BME280;48770;51.624;5.886;2023-02-12T12:49:25;103720.69;;;19.81;37.29
62710;BME280;48770;51.624;5.886;2023-02-12T12:54:47;103725.69;;;19.89;37.26
62710;BME280;48770;51.624;5.886;2023-02-12T13:19:23;103700.97;;;20.02;37.44
62710;BME280;48770;51.624;5.886;2023-02-12T13:22:11;103694.28;;;20.03;37.26
62710;BME280;48770;51.624;5.886;2023-02-12T13:24:51;103700.44;;;20.06;37.42
62710;BME280;48770;51.624;5.886;2023-02-12T13:27:22;103696.25;;;20.08;37.19
62710;BME280;48770;51.624;5.886;2023-02-12T13:32:25;103692.94;;;20.11;37.11
62710;BME280;48770;51.624;5.886;2023-02-12T13:34:54;103695.44;;;20.13;37.16
62710;BME280;48770;51.624;5.886;2023-02-12T13:37:43;103695.97;;;20.15;37.19
62710;BME280;48770;51.624;5.886;2023-02-12T13:40:17;103685.16;;;20.13;37.30
62710;BME280;48770;51.624;5.886;2023-02-12T13:50:54;103694.03;;;20.15;37.24
62710;BME280;48770;51.624;5.886;2023-02-12T13:53:24;103690.97;;;20.17;37.41
62710;BME280;48770;51.624;5.886;2023-02-12T13:56:03;103691.53;;;20.19;37.24
62710;BME280;48770;51.624;5.886;2023-02-12T14:01:12;103683.75;;;20.21;37.39
62710;BME280;48770;51.624;5.886;2023-02-12T14:06:38;103686.25;;;20.22;37.34
62710;BME280;48770;51.624;5.886;2023-02-12T14:09:09;103682.34;;;20.23;37.14
62710;BME280;48770;51.624;5.886;2023-02-12T14:11:47;103687.06;;;20.23;37.15
62710;BME280;48770;51.624;5.886;2023-02-12T14:14:24;103682.34;;;20.23;37.30
62710;BME280;48770;51.624;5.886;2023-02-12T14:16:50;103678.75;;;20.23;37.29
62710;BME280;48770;51.624;5.886;2023-02-12T14:22:12;103676.81;;;20.18;37.32
62710;BME280;48770;51.624;5.886;2023-02-12T14:24:55;103676.53;;;20.15;37.37
62710;BME280;48770;51.624;5.886;2023-02-12T14:35:35;103669.03;;;20.00;37.68
62710;BME280;48770;51.624;5.886;2023-02-12T14:43:02;103676.53;;;19.94;37.67
62710;BME280;48770;51.624;5.886;2023-02-12T14:45:31;103671.53;;;19.91;37.92
62710;BME280;48770;51.624;5.886;2023-02-12T14:47:56;103679.31;;;19.89;37.84
62710;BME280;48770;51.624;5.886;2023-02-12T14:50:27;103685.44;;;19.86;37.62
62710;BME280;48770;51.624;5.886;2023-02-12T14:52:58;103675.72;;;19.84;37.80
62710;BME280;48770;51.624;5.886;2023-02-12T14:55:25;103675.16;;;19.82;37.68
62710;BME280;48770;51.624;5.886;2023-02-12T14:57:57;103675.44;;;19.80;37.98
62710;BME280;48770;51.624;5.886;2023-02-12T15:00:40;103665.97;;;19.76;37.90
62710;BME280;48770;51.624;5.886;2023-02-12T15:05:42;103661.81;;;19.74;37.97
62710;BME280;48770;51.624;5.886;2023-02-12T15:08:43;103660.69;;;19.69;38.01
62710;BME280;48770;51.624;5.886;2023-02-12T15:13:58;103652.09;;;19.66;38.10
62710;BME280;48770;51.624;5.886;2023-02-12T15:19:19;103650.97;;;19.62;38.13
62710;BME280;48770;51.624;5.886;2023-02-12T15:21:51;103659.31;;;19.62;38.40
62710;BME280;48770;51.624;5.886;2023-02-12T15:24:23;103653.19;;;19.60;38.28
62710;BME280;48770;51.624;5.886;2023-02-12T15:26:51;103657.63;;;19.61;38.19
62710;BME280;48770;51.624;5.886;2023-02-12T15:29:37;103653.75;;;19.57;38.46
62710;BME280;48770;51.624;5.886;2023-02-12T15:32:06;103662.09;;;19.57;38.27
62710;BME280;48770;51.624;5.886;2023-02-12T15:34:36;103659.31;;;19.57;38.49
62710;BME280;48770;51.624;5.886;2023-02-12T15:37:14;103661.53;;;19.55;38.29
62710;BME280;48770;51.624;5.886;2023-02-12T15:39:45;103661.81;;;19.53;38.40
62710;BME280;48770;51.624;5.886;2023-02-12T15:42:31;103666.50;;;19.53;38.28